Time;durP1;ratioP1;P1;durP2;ratioP2;P2;SDS_P1;SDS_P2;PMS_P1;PMS_P2;Temp;Humidity;BMP_temperature;BMP_pressure;BME280_temperature;BME280_humidity;BME280_pressure;Samples;Min_cycle;Max_cycle;Signal;HPM_P1;HPM_P2
2022/04/30 00:02:09;;;;;;;;;;;333.10;2329.60;;;;;;5094011;28;20360;-70
2022/04/30 00:04:35;;;;;;;;;;;333.10;2329.60;;;;;;5094043;28;19907;-71
2022/04/30 00:07:01;;;;;;;;;;;333.00;2329.60;;;;;;5094622;28;19953;-69
2022/04/30 00:09:27;;;;;;;;;;;333.00;2329.60;;;;;;5094023;28;19994;-70
2022/04/30 00:11:53;;;;;;;;;;;332.90;2329.60;;;;;;5093955;28;19911;-71
2022/04/30 00:14:18;;;;;;;;;;;333.00;2329.60;;;;;;5093849;28;19904;-70
2022/04/30 00:16:44;;;;;;;;;;;332.90;2329.60;;;;;;5093885;28;19904;-70
2022/04/30 00:19:10;;;;;;;;;;;332.80;2329.60;;;;;;5093995;28;19911;-71
2022/04/30 00:21:35;;;;;;;;;;;332.80;2329.60;;;;;;5093849;28;19912;-73
2022/04/30 00:24:02;;;;;;;;;;;332.80;2329.60;;;;;;5094105;28;19934;-70
2022/04/30 00:26:27;;;;;;;;;;;332.80;2329.60;;;;;;5093875;28;19911;-69
2022/04/30 00:28:53;;;;;;;;;;;332.80;2329.60;;;;;;5093820;28;19904;-69
2022/04/30 00:31:19;;;;;;;;;;;332.80;2329.60;;;;;;5092976;28;20315;-69
2022/04/30 00:33:48;;;;;;;;;;;332.80;2329.60;;;;;;5093758;28;19908;-70
2022/04/30 00:36:17;;;;;;;;;;;332.80;2329.60;;;;;;5093584;28;19916;-69
2022/04/30 00:38:42;;;;;;;;;;;332.80;2329.60;;;;;;5093724;28;20386;-71
2022/04/30 00:41:08;;;;;;;;;;;332.80;2329.60;;;;;;5094252;28;19915;-71
2022/04/30 00:43:46;;;;;;;;;;;332.80;2329.60;;;;;;5093661;28;19908;-69
2022/04/30 00:46:15;;;;;;;;;;;332.80;2329.60;;;;;;5093705;28;19904;-70
2022/04/30 00:48:41;;;;;;;;;;;307.80;2304.00;;;;;;5095304;28;20410;-69
2022/04/30 00:51:14;;;;;;;;;;;307.50;2304.00;;;;;;5097662;28;19911;-74
2022/04/30 00:53:41;;;;;;;;;;;307.40;2304.00;;;;;;5097539;28;19987;-73
2022/04/30 00:56:08;;;;;;;;;;;307.70;2304.00;;;;;;5096281;28;19904;-68
2022/04/30 00:58:34;;;;;;;;;;;307.80;2304.00;;;;;;5097536;28;19975;-69
2022/04/30 01:01:01;;;;;;;;;;;307.80;2304.00;;;;;;5097608;28;20294;-68
2022/04/30 01:03:27;;;;;;;;;;;307.70;2304.00;;;;;;5097356;28;19904;-68
2022/04/30 01:05:54;;;;;;;;;;;307.70;2304.00;;;;;;5097639;28;20272;-69
2022/04/30 01:08:20;;;;;;;;;;;307.40;2304.00;;;;;;5097520;28;19912;-70
2022/04/30 01:10:46;;;;;;;;;;;307.60;2304.00;;;;;;5097498;28;20260;-69
2022/04/30 01:13:13;;;;;;;;;;;307.60;2304.00;;;;;;5097505;28;20038;-70
2022/04/30 01:15:39;;;;;;;;;;;307.60;2304.00;;;;;;5097439;28;19904;-72
2022/04/30 01:18:08;;;;;;;;;;;307.40;2304.00;;;;;;5097397;28;20287;-69
2022/04/30 01:20:34;;;;;;;;;;;307.30;2304.00;;;;;;5097144;28;19930;-68
2022/04/30 01:23:02;;;;;;;;;;;282.50;2278.40;;;;;;5096915;28;19911;-69
2022/04/30 01:25:31;;;;;;;;;;;307.20;2304.00;;;;;;5096986;28;19926;-69
2022/04/30 01:27:59;;;;;;;;;;;307.40;2304.00;;;;;;5096932;28;19911;-69
2022/04/30 01:30:25;;;;;;;;;;;307.40;2304.00;;;;;;5096789;28;19915;-74
2022/04/30 01:38:20;;;;;;;;;;;282.10;2278.40;;;;;;5096829;28;20280;-69
2022/04/30 01:40:49;;;;;;;;;;;282.20;2278.40;;;;;;5097774;28;19981;-70
2022/04/30 01:43:15;;;;;;;;;;;282.40;2278.40;;;;;;5096902;28;20353;-68
2022/04/30 01:45:43;;;;;;;;;;;282.50;2278.40;;;;;;5096861;28;20352;-72
2022/04/30 01:48:12;;;;;;;;;;;282.50;2278.40;;;;;;5096595;28;19991;-71
2022/04/30 01:50:38;;;;;;;;;;;282.30;2278.40;;;;;;5096645;28;20007;-69
2022/04/30 01:53:03;;;;;;;;;;;282.30;2278.40;;;;;;5096440;28;19969;-68
2022/04/30 01:55:29;;;;;;;;;;;282.30;2278.40;;;;;;5095143;28;19953;-68
2022/04/30 01:57:55;;;;;;;;;;;282.40;2278.40;;;;;;5096287;28;19912;-68
2022/04/30 02:00:21;;;;;;;;;;;282.50;2278.40;;;;;;5095072;28;19997;-68
2022/04/30 02:02:48;;;;;;;;;;;282.50;2278.40;;;;;;5096444;28;20371;-73
2022/04/30 02:05:14;;;;;;;;;;;282.50;2278.40;;;;;;5096499;28;19904;-69
2022/04/30 02:07:43;;;;;;;;;;;282.40;2278.40;;;;;;5096456;28;19999;-68
2022/04/30 02:10:10;;;;;;;;;;;282.40;2278.40;;;;;;5096088;28;19949;-68
2022/04/30 02:12:36;;;;;;;;;;;282.40;2278.40;;;;;;5096111;28;19919;-71
2022/04/30 02:15:02;;;;;;;;;;;282.40;2278.40;;;;;;5096006;28;19904;-68
2022/04/30 02:17:29;;;;;;;;;;;282.50;2278.40;;;;;;5095973;28;19912;-73
2022/04/30 02:22:40;;;;;;;;;;;307.20;2304.00;;;;;;5095959;28;19918;-68
2022/04/30 02:25:09;;;;;;;;;;;282.50;2278.40;;;;;;5096226;28;19904;-68
2022/04/30 02:27:41;;;;;;;;;;;282.40;2278.40;;;;;;5095718;28;19908;-75
2022/04/30 02:30:08;;;;;;;;;;;282.40;2278.40;;;;;;5095653;28;19904;-68
2022/04/30 02:32:48;;;;;;;;;;;282.40;2278.40;;;;;;5095603;28;19904;-68
2022/04/30 02:35:19;;;;;;;;;;;282.40;2278.40;;;;;;5095607;28;19916;-73
2022/04/30 02:37:45;;;;;;;;;;;282.40;2278.40;;;;;;5095627;28;20368;-73
2022/04/30 02:40:12;;;;;;;;;;;282.30;2278.40;;;;;;5095502;28;19991;-73
2022/04/30 02:42:38;;;;;;;;;;;282.30;2278.40;;;;;;5095353;28;19955;-68
2022/04/30 02:45:04;;;;;;;;;;;282.30;2278.40;;;;;;5095429;28;19904;-68
2022/04/30 02:47:30;;;;;;;;;;;282.30;2278.40;;;;;;5095595;28;19904;-70
2022/04/30 02:49:56;;;;;;;;;;;282.30;2278.40;;;;;;5093919;28;20249;-69
2022/04/30 02:52:22;;;;;;;;;;;282.30;2278.40;;;;;;5095268;28;19904;-68
2022/04/30 02:54:48;;;;;;;;;;;282.20;2278.40;;;;;;5095225;28;19904;-69
2022/04/30 02:57:14;;;;;;;;;;;282.20;2278.40;;;;;;5095458;28;19904;-69
2022/04/30 02:59:54;;;;;;;;;;;282.20;2278.40;;;;;;5095098;28;20367;-71
2022/04/30 03:02:21;;;;;;;;;;;282.20;2278.40;;;;;;5095228;28;19912;-68
2022/04/30 03:04:53;;;;;;;;;;;282.20;2278.40;;;;;;5095102;28;19904;-68
2022/04/30 03:07:19;;;;;;;;;;;282.20;2278.40;;;;;;5094992;28;19904;-68
2022/04/30 03:09:47;;;;;;;;;;;282.20;2278.40;;;;;;5094988;28;19908;-68
2022/04/30 03:12:13;;;;;;;;;;;282.20;2278.40;;;;;;5094517;28;19911;-69
2022/04/30 03:14:39;;;;;;;;;;;282.20;2278.40;;;;;;5094850;28;19908;-68
2022/04/30 03:22:33;;;;;;;;;;;282.10;2278.40;;;;;;5095151;28;20276;-70
2022/04/30 03:24:59;;;;;;;;;;;282.10;2278.40;;;;;;5094682;28;19904;-68
2022/04/30 03:27:25;;;;;;;;;;;282.10;2278.40;;;;;;5094884;28;19908;-68
2022/04/30 03:29:51;;;;;;;;;;;282.10;2278.40;;;;;;5094527;28;20334;-68
2022/04/30 03:32:17;;;;;;;;;;;282.10;2278.40;;;;;;5094603;28;19904;-68
2022/04/30 03:34:43;;;;;;;;;;;282.10;2278.40;;;;;;5094283;28;19970;-69
2022/04/30 03:37:08;;;;;;;;;;;282.00;2278.40;;;;;;5094514;28;19904;-68
2022/04/30 03:39:34;;;;;;;;;;;282.00;2278.40;;;;;;5094683;28;19904;-71
2022/04/30 03:42:01;;;;;;;;;;;282.00;2278.40;;;;;;5094175;28;20019;-68
2022/04/30 03:44:27;;;;;;;;;;;282.00;2278.40;;;;;;5094305;28;19943;-68
2022/04/30 03:46:52;;;;;;;;;;;282.10;2278.40;;;;;;5094915;28;19911;-72
2022/04/30 03:49:18;;;;;;;;;;;282.00;2278.40;;;;;;5093071;28;19904;-68
2022/04/30 03:51:44;;;;;;;;;;;282.10;2278.40;;;;;;5092851;28;19904;-69
2022/04/30 03:54:09;;;;;;;;;;;282.10;2278.40;;;;;;5094394;28;20268;-72
2022/04/30 03:56:35;;;;;;;;;;;282.10;2278.40;;;;;;5094293;28;19915;-71
2022/04/30 03:59:01;;;;;;;;;;;282.10;2278.40;;;;;;5094205;28;19915;-69
2022/04/30 04:01:27;;;;;;;;;;;282.10;2278.40;;;;;;5094205;28;19908;-73
2022/04/30 04:03:53;;;;;;;;;;;282.00;2278.40;;;;;;5094555;28;19908;-68
2022/04/30 04:06:19;;;;;;;;;;;282.00;2278.40;;;;;;5094276;28;19908;-68
2022/04/30 04:08:49;;;;;;;;;;;282.00;2278.40;;;;;;5094087;28;20363;-69
2022/04/30 04:11:16;;;;;;;;;;;282.10;2278.40;;;;;;5093993;28;20376;-70
2022/04/30 04:19:11;;;;;;;;;;;281.90;2278.40;;;;;;5093882;28;20367;-69
2022/04/30 04:21:37;;;;;;;;;;;281.80;2278.40;;;;;;5093873;28;19912;-73
2022/04/30 04:26:46;;;;;;;;;;;282.20;2278.40;;;;;;5098516;28;19911;-68
2022/04/30 04:29:16;;;;;;;;;;;282.30;2278.40;;;;;;5097979;28;20273;-74
2022/04/30 04:31:44;;;;;;;;;;;282.10;2278.40;;;;;;5098230;28;19904;-70
2022/04/30 04:34:11;;;;;;;;;;;282.20;2278.40;;;;;;5097955;28;19904;-68
2022/04/30 04:36:36;;;;;;;;;;;282.40;2278.40;;;;;;5097692;28;19915;-69
2022/04/30 04:39:09;;;;;;;;;;;307.20;2304.00;;;;;;5097825;28;19950;-74
2022/04/30 04:41:34;;;;;;;;;;;307.20;2304.00;;;;;;5097680;28;20269;-70
2022/04/30 04:44:02;;;;;;;;;;;307.30;2304.00;;;;;;5096451;28;19911;-69
2022/04/30 04:46:28;;;;;;;;;;;307.40;2304.00;;;;;;5097736;28;20070;-68
2022/04/30 04:48:53;;;;;;;;;;;307.40;2304.00;;;;;;5097693;28;20009;-73
2022/04/30 04:51:21;;;;;;;;;;;307.40;2304.00;;;;;;5097664;28;20379;-68
2022/04/30 04:53:46;;;;;;;;;;;307.30;2304.00;;;;;;5097570;28;19907;-68
2022/04/30 04:56:12;;;;;;;;;;;307.30;2304.00;;;;;;5097868;28;20305;-73
2022/04/30 04:58:40;;;;;;;;;;;307.30;2304.00;;;;;;5097524;28;19904;-68
2022/04/30 05:01:06;;;;;;;;;;;307.40;2304.00;;;;;;5097285;28;19997;-69
2022/04/30 05:03:32;;;;;;;;;;;307.40;2304.00;;;;;;5097415;28;19978;-68
2022/04/30 05:05:57;;;;;;;;;;;307.40;2304.00;;;;;;5097339;28;19907;-68
2022/04/30 05:08:23;;;;;;;;;;;307.50;2304.00;;;;;;5097352;28;19937;-68
2022/04/30 05:10:49;;;;;;;;;;;307.60;2304.00;;;;;;5097328;28;19908;-67
2022/04/30 05:13:15;;;;;;;;;;;307.60;2304.00;;;;;;5097225;28;19915;-69
2022/04/30 05:15:41;;;;;;;;;;;307.60;2304.00;;;;;;5097176;28;19959;-68
2022/04/30 05:18:07;;;;;;;;;;;307.70;2304.00;;;;;;5097100;28;19910;-68
2022/04/30 05:20:33;;;;;;;;;;;307.80;2304.00;;;;;;5097070;28;19929;-68
2022/04/30 05:22:59;;;;;;;;;;;307.90;2304.00;;;;;;5096999;28;19912;-68
2022/04/30 05:25:25;;;;;;;;;;;307.90;2304.00;;;;;;5096947;28;20284;-73
2022/04/30 05:27:52;;;;;;;;;;;307.90;2304.00;;;;;;5097216;28;19951;-68
2022/04/30 05:30:18;;;;;;;;;;;308.00;2304.00;;;;;;5096851;28;19911;-68
2022/04/30 05:32:43;;;;;;;;;;;307.90;2304.00;;;;;;5096795;28;19904;-68
2022/04/30 05:35:10;;;;;;;;;;;307.90;2304.00;;;;;;5096398;28;19923;-73
2022/04/30 05:37:35;;;;;;;;;;;308.00;2304.00;;;;;;5096755;28;19908;-70
2022/04/30 05:40:01;;;;;;;;;;;332.80;2329.60;;;;;;5096959;28;19915;-68
2022/04/30 05:42:27;;;;;;;;;;;332.90;2329.60;;;;;;5096620;28;19912;-69
2022/04/30 05:44:52;;;;;;;;;;;333.10;2329.60;;;;;;5096654;28;19911;-69
2022/04/30 05:47:19;;;;;;;;;;;333.40;2329.60;;;;;;5095307;28;19904;-73
2022/04/30 05:49:45;;;;;;;;;;;333.70;2329.60;;;;;;5096484;28;19911;-72
2022/04/30 05:52:11;;;;;;;;;;;358.40;2329.60;;;;;;5095598;28;19912;-70
2022/04/30 05:54:37;;;;;;;;;;;358.70;2329.60;;;;;;5096155;28;19930;-72
2022/04/30 05:57:03;;;;;;;;;;;358.80;2329.60;;;;;;5095103;28;19916;-71
2022/04/30 05:59:29;;;;;;;;;;;358.90;2329.60;;;;;;5078136;28;20342;-68
2022/04/30 06:01:55;;;;;;;;;;;359.10;2329.60;;;;;;5096135;28;19912;-70
2022/04/30 06:04:21;;;;;;;;;;;359.10;2329.60;;;;;;5095910;28;19925;-74
2022/04/30 06:06:47;;;;;;;;;;;359.20;2329.60;;;;;;5096286;28;19911;-68
2022/04/30 06:09:13;;;;;;;;;;;384.00;2329.60;;;;;;5095501;28;19915;-73
2022/04/30 06:11:39;;;;;;;;;;;384.10;2329.60;;;;;;5095580;28;19958;-68
2022/04/30 06:14:05;;;;;;;;;;;384.20;2329.60;;;;;;5093134;28;19911;-69
2022/04/30 06:16:30;;;;;;;;;;;384.50;2329.60;;;;;;5095437;28;19904;-68
2022/04/30 06:18:56;;;;;;;;;;;384.60;2329.60;;;;;;5095418;28;19904;-68
2022/04/30 06:21:23;;;;;;;;;;;384.80;2329.60;;;;;;5094970;28;19908;-69
2022/04/30 06:23:49;;;;;;;;;;;409.60;2355.20;;;;;;5094217;28;20034;-73
2022/04/30 06:26:15;;;;;;;;;;;409.60;2355.20;;;;;;5094001;28;19915;-71
2022/04/30 06:28:41;;;;;;;;;;;409.80;2355.20;;;;;;5094150;28;19904;-74
2022/04/30 06:31:06;;;;;;;;;;;409.80;2355.20;;;;;;5093926;28;19927;-71
2022/04/30 06:33:32;;;;;;;;;;;409.70;2355.20;;;;;;5093663;28;19908;-73
2022/04/30 06:35:58;;;;;;;;;;;410.00;2355.20;;;;;;5094134;28;20015;-73
2022/04/30 06:38:24;;;;;;;;;;;410.10;2355.20;;;;;;5094554;28;19957;-70
2022/04/30 06:40:49;;;;;;;;;;;410.10;2355.20;;;;;;5094167;28;19973;-74
2022/04/30 06:43:15;;;;;;;;;;;410.10;2355.20;;;;;;5093826;28;19920;-70
2022/04/30 06:45:41;;;;;;;;;;;410.40;2355.20;;;;;;5093543;28;19918;-70
2022/04/30 06:48:06;;;;;;;;;;;435.30;2355.20;;;;;;5093883;28;20399;-69
2022/04/30 06:50:32;;;;;;;;;;;435.50;2355.20;;;;;;5093876;28;19911;-73
2022/04/30 06:58:26;;;;;;;;;;;435.50;2355.20;;;;;;5093717;28;19915;-71
2022/04/30 07:03:24;;;;;;;;;;;435.70;2355.20;;;;;;5093576;28;20694;-73
2022/04/30 07:05:50;;;;;;;;;;;435.70;2355.20;;;;;;5093271;28;19911;-70
2022/04/30 07:08:16;;;;;;;;;;;436.00;2355.20;;;;;;5093304;28;19939;-72
2022/04/30 07:10:41;;;;;;;;;;;436.10;2355.20;;;;;;5093614;28;20356;-71
2022/04/30 07:13:07;;;;;;;;;;;460.80;2380.80;;;;;;5093516;28;19908;-73
2022/04/30 07:15:33;;;;;;;;;;;461.00;2380.80;;;;;;5093880;28;19911;-73
2022/04/30 07:17:58;;;;;;;;;;;461.20;2380.80;;;;;;5092634;28;20381;-69
2022/04/30 07:20:24;;;;;;;;;;;461.40;2380.80;;;;;;5093342;28;20327;-67
2022/04/30 07:22:50;;;;;;;;;;;461.60;2380.80;;;;;;5093638;28;20368;-69
2022/04/30 07:25:15;;;;;;;;;;;486.50;2380.80;;;;;;5092872;28;20403;-73
2022/04/30 07:27:41;;;;;;;;;;;486.90;2380.80;;;;;;5093418;28;19911;-70
2022/04/30 07:30:07;;;;;;;;;;;487.10;2380.80;;;;;;5093083;28;19904;-69
2022/04/30 07:32:32;;;;;;;;;;;487.00;2380.80;;;;;;5094074;28;20467;-73
2022/04/30 07:34:58;;;;;;;;;;;487.20;2380.80;;;;;;5074485;28;19916;-69
2022/04/30 07:37:23;;;;;;;;;;;512.10;2380.80;;;;;;5093443;28;19904;-71
2022/04/30 07:39:49;;;;;;;;;;;512.60;2380.80;;;;;;5093925;28;20001;-69
2022/04/30 07:42:15;;;;;;;;;;;537.60;2406.40;;;;;;5094061;28;20011;-73
2022/04/30 07:44:40;;;;;;;;;;;537.60;2380.80;;;;;;5093797;28;20336;-71
2022/04/30 07:47:06;;;;;;;;;;;512.80;2304.00;;;;;;5093789;28;20003;-74
2022/04/30 07:49:32;;;;;;;;;;;537.60;2380.80;;;;;;5094118;28;20256;-73
2022/04/30 07:51:57;;;;;;;;;;;538.00;2278.40;;;;;;5094275;28;19908;-69
2022/04/30 07:54:23;;;;;;;;;;;538.10;2278.40;;;;;;5094173;28;20310;-76
2022/04/30 07:56:53;;;;;;;;;;;537.90;2252.80;;;;;;5094165;28;20321;-74
2022/04/30 07:59:19;;;;;;;;;;;538.20;2201.60;;;;;;5094030;28;19904;-74
2022/04/30 08:01:44;;;;;;;;;;;538.20;2176.00;;;;;;5093947;28;19908;-69
2022/04/30 08:04:10;;;;;;;;;;;538.50;2176.00;;;;;;5094032;28;20268;-71
2022/04/30 08:06:35;;;;;;;;;;;563.20;2176.00;;;;;;5093965;28;19908;-70
2022/04/30 08:09:01;;;;;;;;;;;563.40;2124.80;;;;;;5093667;28;19922;-71
2022/04/30 08:11:27;;;;;;;;;;;563.50;2099.20;;;;;;5093481;28;19904;-71
2022/04/30 08:13:53;;;;;;;;;;;563.70;2048.00;;;;;;5093889;28;19904;-73
2022/04/30 08:16:18;;;;;;;;;;;588.90;1996.80;;;;;;5093675;28;19911;-71
2022/04/30 08:18:44;;;;;;;;;;;589.60;1945.60;;;;;;5093673;28;19904;-68
2022/04/30 08:21:09;;;;;;;;;;;615.00;1843.20;;;;;;5093620;28;19904;-72
2022/04/30 08:23:36;;;;;;;;;;;640.40;1792.00;;;;;;5092204;28;20376;-72
2022/04/30 08:26:03;;;;;;;;;;;640.60;1766.40;;;;;;5093798;28;19908;-73
2022/04/30 08:28:28;;;;;;;;;;;615.00;1715.20;;;;;;5093707;28;19911;-73
2022/04/30 08:30:54;;;;;;;;;;;589.70;1792.00;;;;;;5094001;28;19931;-72
2022/04/30 08:33:20;;;;;;;;;;;589.70;1817.60;;;;;;5093680;28;19904;-68
2022/04/30 08:35:46;;;;;;;11.32;8.80;;;614.60;1792.00;;;;;;5092753;28;19920;-71
2022/04/30 08:38:12;;;;;;;;;;;614.40;1792.00;;;;;;5093596;28;20028;-71
2022/04/30 08:40:41;;;;;;;;;;;614.50;1766.40;;;;;;5093676;28;19904;-64
2022/04/30 08:43:08;;;;;;;;;;;614.80;1792.00;;;;;;5093490;28;19916;-69
2022/04/30 08:45:35;;;;;;;;;;;615.30;1740.80;;;;;;5093157;28;20000;-63
2022/04/30 08:48:01;;;;;;;;;;;640.10;1689.60;;;;;;5093848;28;20315;-74
2022/04/30 08:50:29;;;;;;;;;;;615.10;1664.00;;;;;;5075470;28;19911;-70
2022/04/30 08:52:55;;;;;;;;;;;615.00;1664.00;;;;;;5093457;28;19908;-68
2022/04/30 08:55:21;;;;;;;;;;;614.60;1638.40;;;;;;5093740;28;19908;-67
2022/04/30 08:57:46;;;;;;;;;;;614.70;1561.60;;;;;;5092907;28;20291;-69
2022/04/30 09:00:12;;;;;;;;;;;615.10;1638.40;;;;;;5075400;28;19911;-69
2022/04/30 09:02:48;;;;;;;;;;;615.10;1638.40;;;;;;5093029;28;19930;-65
2022/04/30 09:05:14;;;;;;;;;;;640.40;1587.20;;;;;;5093046;28;20369;-67
2022/04/30 09:07:39;;;;;;;;;;;640.70;1587.20;;;;;;5093219;28;19911;-68
2022/04/30 09:10:05;;;;;;;;;;;640.80;1561.60;;;;;;5095581;28;19908;-66
2022/04/30 09:12:33;;;;;;;;;;;640.70;1561.60;;;;;;5096841;28;19915;-73
2022/04/30 09:14:59;;;;;;;;;;;640.30;1612.80;;;;;;5097100;28;19911;-73
2022/04/30 09:17:28;;;;;;;;;;;640.50;1561.60;;;;;;5078381;28;19907;-69
2022/04/30 09:19:54;;;;;;;;;;;640.10;1510.40;;;;;;5096316;28;19915;-71
2022/04/30 09:22:30;;;;;;;;;;;640.00;1536.00;;;;;;5096403;28;19915;-69
2022/04/30 09:24:56;;;;;;;;;;;640.50;1587.20;;;;;;5094811;28;19994;-69
2022/04/30 09:27:22;;;;;;;;;;;665.70;1510.40;;;;;;5096892;28;20381;-72
2022/04/30 09:29:48;;;;;;;;;;;665.90;1484.80;;;;;;5096988;28;19962;-71
2022/04/30 09:32:23;;;;;;;;;;;666.10;1484.80;;;;;;5096765;28;20272;-68
2022/04/30 09:37:43;;;;;;;;;;;640.10;1510.40;;;;;;5096945;28;19927;-72
2022/04/30 09:40:14;;;;;;;;;;;640.20;1587.20;;;;;;5096622;28;19911;-69
2022/04/30 09:42:41;;;;;;;;;;;665.80;1510.40;;;;;;5096496;28;19912;-72
2022/04/30 09:45:07;;;;;;;;;;;665.60;1459.20;;;;;;5096468;28;20038;-71
2022/04/30 09:47:33;;;;;;;;;;;666.10;1433.60;;;;;;5096245;28;20253;-73
2022/04/30 09:55:54;;;;;;;;;;;640.60;1433.60;;;;;;5034014;28;19909;-68
2022/04/30 09:58:22;;;;;;;;;;;640.80;1433.60;;;;;;5085299;28;19911;-70
2022/04/30 10:00:48;;;;;;;;;;;666.00;1459.20;;;;;;5096110;28;20378;-72
2022/04/30 10:03:13;;;;;;;;;;;666.40;1459.20;;;;;;5096021;28;20010;-73
2022/04/30 10:05:40;;;;;;;;;;;666.00;1459.20;;;;;;5096137;28;20264;-66
2022/04/30 10:08:06;;;;;;;;;;;640.90;1484.80;;;;;;5096086;28;19908;-66
2022/04/30 10:10:52;;;;;;;;;;;665.80;1459.20;;;;;;5096112;28;19911;-67
2022/04/30 10:13:44;;;;;;;;;;;665.70;1459.20;;;;;;5095542;28;19904;-65
2022/04/30 10:16:12;;;;;;;;;;;665.80;1433.60;;;;;;5095628;28;19908;-68
2022/04/30 10:18:43;;;;;;;;;;;666.30;1433.60;;;;;;5094574;28;19904;-71
2022/04/30 10:21:19;;;;;;;;;;;691.30;1433.60;;;;;;5093493;28;19985;-71
2022/04/30 10:23:45;;;;;;;;;;;666.50;1382.40;;;;;;5095191;28;19908;-73
2022/04/30 10:26:11;;;;;;;;;;;691.20;1408.00;;;;;;5095150;28;20359;-66
2022/04/30 10:28:36;;;;;;;;;;;691.20;1408.00;;;;;;5095466;28;19904;-74
2022/04/30 10:31:03;;;;;;;;;;;666.00;1433.60;;;;;;5095389;28;20356;-73
2022/04/30 10:33:29;;;;;;;;;;;640.80;1433.60;;;;;;5095594;28;19908;-74
2022/04/30 10:36:04;;;;;;;;;;;640.80;1382.40;;;;;;5095134;28;19965;-73
2022/04/30 10:38:30;;;;;;;;;;;665.60;1382.40;;;;;;5095101;28;19995;-71
2022/04/30 10:40:57;;;;;;;;;;;640.10;1433.60;;;;;;5095133;28;20002;-69
2022/04/30 10:43:26;;;;;;;;;;;615.20;1510.40;;;;;;5095259;28;20355;-73
2022/04/30 10:45:53;;;;;;;;;;;615.20;1510.40;;;;;;5095139;28;20360;-67
2022/04/30 10:48:20;;;;;;;;;;;640.70;1433.60;;;;;;5094773;28;19956;-72
2022/04/30 10:50:47;;;;;;;;;;;640.60;1433.60;;;;;;5094803;28;19947;-69
2022/04/30 10:53:14;;;;;;;;;;;665.70;1433.60;;;;;;5094947;28;20447;-73
2022/04/30 10:55:40;;;;;;;;;;;666.30;1382.40;;;;;;5095085;28;20253;-73
2022/04/30 10:58:05;;;;;;;;;;;640.50;1382.40;;;;;;5094742;28;19961;-71
2022/04/30 11:00:31;;;;;;;;;;;640.70;1433.60;;;;;;5094495;28;20661;-65
2022/04/30 11:03:06;;;;;;;;;;;640.60;1408.00;;;;;;5094549;28;19915;-67
2022/04/30 11:05:32;;;;;;;;;;;640.40;1433.60;;;;;;5094647;28;19904;-73
2022/04/30 11:08:00;;;;;;;;;;;665.60;1433.60;;;;;;5094549;28;19910;-65
2022/04/30 11:10:26;;;;;;;;;;;640.50;1382.40;;;;;;5094377;28;19908;-72
2022/04/30 11:13:01;;;;;;;;;;;640.50;1433.60;;;;;;5094319;28;20318;-73
2022/04/30 11:15:26;;;;;;;;;;;665.80;1459.20;;;;;;5094569;28;19999;-73
2022/04/30 11:17:57;;;;;;;;;;;665.60;1433.60;;;;;;5094487;28;19940;-66
2022/04/30 11:20:23;;;;;;;;;;;666.10;1408.00;;;;;;5094470;28;19908;-65
2022/04/30 11:22:55;;;;;;;;;;;665.90;1382.40;;;;;;5094243;28;19916;-65
2022/04/30 11:25:21;;;;;;;;;;;640.40;1433.60;;;;;;5076231;28;20442;-73
2022/04/30 11:27:47;;;;;;;;;;;640.20;1459.20;;;;;;5094561;28;19965;-73
2022/04/30 11:30:13;;;;;;;;;;;640.20;1433.60;;;;;;5093683;28;19904;-69
2022/04/30 11:32:38;;;;;;;;;;;640.10;1459.20;;;;;;5093891;28;19904;-72
2022/04/30 11:35:04;;;;;;;;;;;615.20;1459.20;;;;;;5093901;28;19912;-70
2022/04/30 11:37:37;;;;;;;;;;;614.90;1484.80;;;;;;5094051;28;19919;-65
2022/04/30 11:40:03;;;;;;;;;;;614.60;1510.40;;;;;;5094238;28;19911;-66
2022/04/30 11:42:29;;;;;;;6.57;3.38;;;614.90;1459.20;;;;;;5093249;28;20280;-73
2022/04/30 11:44:54;;;;;;;2.75;2.30;;;640.10;1433.60;;;;;;5093811;28;20020;-65
2022/04/30 11:47:21;;;;;;;2.95;2.58;;;615.00;1382.40;;;;;;5093483;28;20385;-66
2022/04/30 11:49:46;;;;;;;;;;;614.90;1433.60;;;;;;5094027;28;20537;-69
2022/04/30 11:52:14;;;;;;;;;;;614.80;1459.20;;;;;;5110237;28;20002;-70
2022/04/30 11:54:40;;;;;;;;;;;615.10;1433.60;;;;;;5097215;28;19994;-73
2022/04/30 11:57:06;;;;;;;;;;;614.90;1459.20;;;;;;5107961;28;19973;-63
2022/04/30 11:59:40;;;;;;;;;;;614.80;1459.20;;;;;;5103354;28;20314;-64
2022/04/30 12:02:10;;;;;;;;;;;614.70;1459.20;;;;;;5099372;28;19917;-66
2022/04/30 12:04:37;;;;;;;;;;;614.70;1459.20;;;;;;5110551;28;19914;-68
2022/04/30 12:07:05;;;;;;;;;;;614.60;1484.80;;;;;;5098323;28;19926;-72
2022/04/30 12:09:31;;;;;;;;;;;614.70;1433.60;;;;;;5104554;28;19904;-72
2022/04/30 12:11:58;;;;;;;;;;;614.80;1459.20;;;;;;5102906;28;19927;-68
2022/04/30 12:14:24;;;;;;;;;;;615.00;1382.40;;;;;;5110840;28;19908;-72
2022/04/30 12:16:51;;;;;;;;;;;640.20;1382.40;;;;;;5097475;28;19903;-72
2022/04/30 12:24:59;;;;;;;;;;;640.80;1356.80;;;;;;5083435;28;19946;-71
2022/04/30 12:27:26;;;;;;;;;;;640.10;1382.40;;;;;;5106050;28;20318;-68
2022/04/30 12:30:02;;;;;;;;;;;640.40;1382.40;;;;;;5110929;28;20348;-65
2022/04/30 12:32:28;;;;;;;;;;;640.90;1356.80;;;;;;5096951;28;19991;-68
2022/04/30 12:34:53;;;;;;;;;;;665.80;1331.20;;;;;;5094642;28;20004;-66
2022/04/30 12:37:28;;;;;;;;;;;665.80;1305.60;;;;;;5094425;28;19998;-64
2022/04/30 12:39:54;;;;;;;;;;;666.30;1356.80;;;;;;5094280;28;20382;-64
2022/04/30 12:42:19;;;;;;;;;;;691.30;1305.60;;;;;;5094177;28;19912;-64
2022/04/30 12:44:45;;;;;;;;;;;691.60;1331.20;;;;;;5096558;28;20008;-70
2022/04/30 12:47:11;;;;;;;;;;;691.60;1305.60;;;;;;5099077;28;19912;-65
2022/04/30 12:49:37;;;;;;;;;;;692.00;1331.20;;;;;;5098407;28;19946;-66
2022/04/30 12:52:03;;;;;;;;;;;716.80;1305.60;;;;;;5098310;28;19985;-66
2022/04/30 12:54:29;;;;;;;;;;;717.10;1331.20;;;;;;5099487;28;20312;-68
2022/04/30 12:56:55;;;;;;;;;;;692.00;1280.00;;;;;;5098507;28;19986;-66
2022/04/30 12:59:20;;;;;;;;;;;692.00;1280.00;;;;;;5097315;28;19915;-66
2022/04/30 13:01:46;;;;;;;;;;;692.00;1280.00;;;;;;5097024;28;19919;-66
2022/04/30 13:04:12;;;;;;;;;;;716.80;1305.60;;;;;;5098930;28;20360;-70
2022/04/30 13:06:38;;;;;;;;;;;691.70;1305.60;;;;;;5098129;28;20308;-74
2022/04/30 13:14:32;;;;;;;;;;;640.10;1408.00;;;;;;5097348;28;20363;-74
2022/04/30 13:16:59;;;;;;;;;;;615.00;1433.60;;;;;;5096721;28;19987;-65
2022/04/30 13:19:26;;;;;;;;;;;614.90;1433.60;;;;;;5097009;28;19904;-75
2022/04/30 13:21:52;;;;;;;;;;;614.90;1459.20;;;;;;5097091;28;19908;-74
2022/04/30 13:24:18;;;;;;;;;;;614.90;1459.20;;;;;;5096641;28;20257;-68
2022/04/30 13:26:44;;;;;;;;;;;615.00;1433.60;;;;;;5113046;28;19911;-64
2022/04/30 13:29:10;;;;;;;;;;;614.90;1408.00;;;;;;5097519;28;19908;-66
2022/04/30 13:31:37;;;;;;;;;;;614.90;1433.60;;;;;;5096741;28;19912;-65
2022/04/30 13:34:03;;;;;;;;;;;615.00;1433.60;;;;;;5097169;28;19908;-66
2022/04/30 13:36:28;;;;;;;;;;;615.00;1433.60;;;;;;5096310;28;19923;-65
2022/04/30 13:38:54;;;;;;;;;;;640.00;1408.00;;;;;;5096333;28;20014;-67
2022/04/30 13:41:19;;;;;;;;;;;640.50;1408.00;;;;;;5096070;28;19908;-67
2022/04/30 13:43:45;;;;;;;;;;;640.20;1382.40;;;;;;5104059;28;19955;-65
2022/04/30 13:46:11;;;;;;;;;;;640.00;1382.40;;;;;;5116938;28;19904;-66
2022/04/30 13:48:37;;;;;;;;;;;640.00;1382.40;;;;;;5116881;28;19904;-73
2022/04/30 13:51:04;;;;;;;;;;;640.50;1356.80;;;;;;5110622;28;19957;-65
2022/04/30 13:53:30;;;;;;;;;;;640.60;1356.80;;;;;;5096237;28;20003;-66
2022/04/30 13:55:57;;;;;;;;;;;640.20;1382.40;;;;;;5107718;28;20356;-68
2022/04/30 13:58:22;;;;;;;5.68;4.30;;;640.10;1382.40;;;;;;5109654;28;20006;-72
2022/04/30 14:00:48;;;;;;;;;;;615.20;1408.00;;;;;;5095611;28;20104;-66
2022/04/30 14:03:14;;;;;;;;;;;615.10;1408.00;;;;;;5094938;28;19927;-67
2022/04/30 14:05:39;;;;;;;;;;;615.00;1433.60;;;;;;5077472;28;19915;-65
2022/04/30 14:08:05;;;;;;;;;;;614.80;1433.60;;;;;;5095712;28;19930;-65
2022/04/30 14:10:31;;;;;;;;;;;614.80;1484.80;;;;;;5096078;28;19904;-65
2022/04/30 14:14:55;;;;;;;;;;;614.50;1459.20;;;;;;5095184;28;20372;-65
2022/04/30 14:15:45;;;;;;;;;;;614.50;1459.20;;;;;;5095688;28;19911;-66
2022/04/30 14:18:19;;;;;;;;;;;614.50;1484.80;;;;;;5095765;28;19904;-64
2022/04/30 14:20:45;;;;;;;;;;;614.40;1484.80;;;;;;5095867;28;19911;-63
2022/04/30 14:23:14;;;;;;;;;;;614.40;1459.20;;;;;;5095035;28;20011;-70
2022/04/30 14:25:39;;;;;;;;;;;614.40;1484.80;;;;;;5095513;28;20368;-66
2022/04/30 14:28:06;;;;;;;;;;;589.70;1433.60;;;;;;5095531;28;19954;-66